sensor_id;sensor_type;location;lat;lon;timestamp;temperature;humidity
298;DHT22;133;49.626;9.680;2023-04-24T00:00:25;11.90;91.90
298;DHT22;133;49.626;9.680;2023-04-24T00:02:51;11.80;91.30
298;DHT22;133;49.626;9.680;2023-04-24T00:05:17;11.90;91.40
298;DHT22;133;49.626;9.680;2023-04-24T00:07:45;11.90;91.20
298;DHT22;133;49.626;9.680;2023-04-24T00:10:11;12.00;90.60
298;DHT22;133;49.626;9.680;2023-04-24T00:12:37;11.90;90.60
298;DHT22;133;49.626;9.680;2023-04-24T00:15:04;11.90;89.90
298;DHT22;133;49.626;9.680;2023-04-24T00:17:30;12.00;90.00
298;DHT22;133;49.626;9.680;2023-04-24T00:19:56;11.90;90.30
298;DHT22;133;49.626;9.680;2023-04-24T00:22:27;11.90;89.80
298;DHT22;133;49.626;9.680;2023-04-24T00:24:54;11.90;89.60
298;DHT22;133;49.626;9.680;2023-04-24T00:27:19;11.90;89.40
298;DHT22;133;49.626;9.680;2023-04-24T00:29:45;11.90;89.40
298;DHT22;133;49.626;9.680;2023-04-24T00:32:11;12.00;89.20
298;DHT22;133;49.626;9.680;2023-04-24T00:34:36;11.90;89.40
298;DHT22;133;49.626;9.680;2023-04-24T00:37:02;12.00;89.50
298;DHT22;133;49.626;9.680;2023-04-24T00:39:28;12.00;89.30
298;DHT22;133;49.626;9.680;2023-04-24T00:41:53;12.00;89.30
298;DHT22;133;49.626;9.680;2023-04-24T00:44:20;12.00;89.30
298;DHT22;133;49.626;9.680;2023-04-24T00:46:49;12.00;89.30
298;DHT22;133;49.626;9.680;2023-04-24T00:49:22;12.00;89.40
298;DHT22;133;49.626;9.680;2023-04-24T00:51:48;11.90;89.70
298;DHT22;133;49.626;9.680;2023-04-24T00:54:15;11.90;89.90
298;DHT22;133;49.626;9.680;2023-04-24T00:56:41;11.90;90.00
298;DHT22;133;49.626;9.680;2023-04-24T00:59:08;11.90;90.00
298;DHT22;133;49.626;9.680;2023-04-24T01:01:34;11.90;89.90
298;DHT22;133;49.626;9.680;2023-04-24T01:04:00;11.90;90.20
298;DHT22;133;49.626;9.680;2023-04-24T01:06:28;12.00;90.60
298;DHT22;133;49.626;9.680;2023-04-24T01:08:54;11.90;90.90
298;DHT22;133;49.626;9.680;2023-04-24T01:11:21;11.80;91.30
298;DHT22;133;49.626;9.680;2023-04-24T01:13:47;11.90;91.70
298;DHT22;133;49.626;9.680;2023-04-24T01:16:17;11.80;91.60
298;DHT22;133;49.626;9.680;2023-04-24T01:18:43;11.80;91.90
298;DHT22;133;49.626;9.680;2023-04-24T01:21:10;11.70;91.90
298;DHT22;133;49.626;9.680;2023-04-24T01:23:38;11.70;92.60
298;DHT22;133;49.626;9.680;2023-04-24T01:26:04;11.60;92.70
298;DHT22;133;49.626;9.680;2023-04-24T01:28:30;11.60;92.50
298;DHT22;133;49.626;9.680;2023-04-24T01:30:56;11.60;92.70
298;DHT22;133;49.626;9.680;2023-04-24T01:33:21;11.50;92.90
298;DHT22;133;49.626;9.680;2023-04-24T01:35:48;11.50;92.80
298;DHT22;133;49.626;9.680;2023-04-24T01:38:14;11.50;92.80
298;DHT22;133;49.626;9.680;2023-04-24T01:40:40;11.50;92.60
298;DHT22;133;49.626;9.680;2023-04-24T01:43:06;11.50;92.50
298;DHT22;133;49.626;9.680;2023-04-24T01:45:32;11.50;92.80
298;DHT22;133;49.626;9.680;2023-04-24T01:47:57;11.40;92.80
298;DHT22;133;49.626;9.680;2023-04-24T01:50:23;11.40;92.70
298;DHT22;133;49.626;9.680;2023-04-24T01:52:49;11.40;92.60
298;DHT22;133;49.626;9.680;2023-04-24T01:55:15;11.40;92.70
298;DHT22;133;49.626;9.680;2023-04-24T01:57:40;11.50;92.30
298;DHT22;133;49.626;9.680;2023-04-24T02:00:07;11.40;92.60
298;DHT22;133;49.626;9.680;2023-04-24T02:02:33;11.40;92.60
298;DHT22;133;49.626;9.680;2023-04-24T02:04:59;11.40;92.70
298;DHT22;133;49.626;9.680;2023-04-24T02:07:24;11.40;92.70
298;DHT22;133;49.626;9.680;2023-04-24T02:09:50;11.40;92.50
298;DHT22;133;49.626;9.680;2023-04-24T02:12:16;11.40;92.60
298;DHT22;133;49.626;9.680;2023-04-24T02:14:43;11.40;92.40
298;DHT22;133;49.626;9.680;2023-04-24T02:17:09;11.40;92.40
298;DHT22;133;49.626;9.680;2023-04-24T02:19:35;11.40;92.30
298;DHT22;133;49.626;9.680;2023-04-24T02:22:00;11.40;92.30
298;DHT22;133;49.626;9.680;2023-04-24T02:24:26;11.40;92.20
298;DHT22;133;49.626;9.680;2023-04-24T02:26:52;11.30;92.40
298;DHT22;133;49.626;9.680;2023-04-24T02:29:17;11.40;92.10
298;DHT22;133;49.626;9.680;2023-04-24T02:31:43;11.40;92.30
298;DHT22;133;49.626;9.680;2023-04-24T02:34:09;11.40;92.20
298;DHT22;133;49.626;9.680;2023-04-24T02:36:34;11.40;92.00
298;DHT22;133;49.626;9.680;2023-04-24T02:39:00;11.40;92.00
298;DHT22;133;49.626;9.680;2023-04-24T02:41:26;11.50;91.70
298;DHT22;133;49.626;9.680;2023-04-24T02:43:57;11.50;91.90
298;DHT22;133;49.626;9.680;2023-04-24T02:46:22;11.40;91.50
298;DHT22;133;49.626;9.680;2023-04-24T02:48:48;11.50;91.30
298;DHT22;133;49.626;9.680;2023-04-24T02:51:13;11.50;91.00
298;DHT22;133;49.626;9.680;2023-04-24T02:53:39;11.50;91.00
298;DHT22;133;49.626;9.680;2023-04-24T02:56:05;11.50;90.90
298;DHT22;133;49.626;9.680;2023-04-24T02:58:31;11.50;90.80
298;DHT22;133;49.626;9.680;2023-04-24T03:00:56;11.40;90.90
298;DHT22;133;49.626;9.680;2023-04-24T03:03:22;11.40;91.10
298;DHT22;133;49.626;9.680;2023-04-24T03:05:49;11.40;91.10
298;DHT22;133;49.626;9.680;2023-04-24T03:08:14;11.40;91.20
298;DHT22;133;49.626;9.680;2023-04-24T03:10:40;11.40;90.90
298;DHT22;133;49.626;9.680;2023-04-24T03:13:05;11.40;90.80
298;DHT22;133;49.626;9.680;2023-04-24T03:15:31;11.40;91.00
298;DHT22;133;49.626;9.680;2023-04-24T03:17:57;11.40;90.60
298;DHT22;133;49.626;9.680;2023-04-24T03:20:23;11.50;90.40
298;DHT22;133;49.626;9.680;2023-04-24T03:22:48;11.50;90.30
298;DHT22;133;49.626;9.680;2023-04-24T03:25:14;11.50;90.10
298;DHT22;133;49.626;9.680;2023-04-24T03:27:40;11.60;90.10
298;DHT22;133;49.626;9.680;2023-04-24T03:30:07;11.60;90.00
298;DHT22;133;49.626;9.680;2023-04-24T03:32:32;11.70;89.70
298;DHT22;133;49.626;9.680;2023-04-24T03:34:58;11.60;90.00
298;DHT22;133;49.626;9.680;2023-04-24T03:37:24;11.60;89.50
298;DHT22;133;49.626;9.680;2023-04-24T03:39:49;11.60;89.70
298;DHT22;133;49.626;9.680;2023-04-24T03:42:15;11.60;89.50
298;DHT22;133;49.626;9.680;2023-04-24T03:44:41;11.60;89.60
298;DHT22;133;49.626;9.680;2023-04-24T03:47:06;11.60;90.00
298;DHT22;133;49.626;9.680;2023-04-24T03:49:32;11.50;90.10
298;DHT22;133;49.626;9.680;2023-04-24T03:51:58;11.50;90.30
298;DHT22;133;49.626;9.680;2023-04-24T03:54:23;11.50;90.30
298;DHT22;133;49.626;9.680;2023-04-24T03:56:49;11.50;90.30
298;DHT22;133;49.626;9.680;2023-04-24T03:59:14;11.50;90.20
298;DHT22;133;49.626;9.680;2023-04-24T04:01:40;11.50;90.10
298;DHT22;133;49.626;9.680;2023-04-24T04:04:06;11.50;90.10
298;DHT22;133;49.626;9.680;2023-04-24T04:06:33;11.50;90.20
298;DHT22;133;49.626;9.680;2023-04-24T04:08:59;11.50;90.10
298;DHT22;133;49.626;9.680;2023-04-24T04:11:25;11.50;90.10
298;DHT22;133;49.626;9.680;2023-04-24T04:13:51;11.40;90.00
298;DHT22;133;49.626;9.680;2023-04-24T04:16:17;11.40;90.30
298;DHT22;133;49.626;9.680;2023-04-24T04:18:43;11.40;90.40
298;DHT22;133;49.626;9.680;2023-04-24T04:21:09;11.30;90.80
298;DHT22;133;49.626;9.680;2023-04-24T04:23:35;11.30;90.70
298;DHT22;133;49.626;9.680;2023-04-24T04:26:01;11.40;90.50
298;DHT22;133;49.626;9.680;2023-04-24T04:28:27;11.40;90.50
298;DHT22;133;49.626;9.680;2023-04-24T04:30:53;11.40;90.60
298;DHT22;133;49.626;9.680;2023-04-24T04:33:23;11.40;90.60
298;DHT22;133;49.626;9.680;2023-04-24T04:35:49;11.40;90.80
298;DHT22;133;49.626;9.680;2023-04-24T04:38:15;11.40;91.30
298;DHT22;133;49.626;9.680;2023-04-24T04:40:42;11.40;91.70
298;DHT22;133;49.626;9.680;2023-04-24T04:43:08;11.30;93.00
298;DHT22;133;49.626;9.680;2023-04-24T04:45:35;11.00;92.80
298;DHT22;133;49.626;9.680;2023-04-24T04:48:02;10.90;93.40
298;DHT22;133;49.626;9.680;2023-04-24T04:50:28;10.80;94.00
298;DHT22;133;49.626;9.680;2023-04-24T04:52:54;10.70;94.80
298;DHT22;133;49.626;9.680;2023-04-24T04:55:30;10.60;94.30
298;DHT22;133;49.626;9.680;2023-04-24T04:57:59;10.60;94.30
298;DHT22;133;49.626;9.680;2023-04-24T05:00:25;10.50;94.30
298;DHT22;133;49.626;9.680;2023-04-24T05:02:51;10.50;94.20
298;DHT22;133;49.626;9.680;2023-04-24T05:05:17;10.40;93.10
298;DHT22;133;49.626;9.680;2023-04-24T05:07:44;10.40;93.10
298;DHT22;133;49.626;9.680;2023-04-24T05:10:09;10.30;93.40
298;DHT22;133;49.626;9.680;2023-04-24T05:12:35;10.30;93.70
298;DHT22;133;49.626;9.680;2023-04-24T05:15:01;10.40;93.90
298;DHT22;133;49.626;9.680;2023-04-24T05:17:28;10.40;94.40
298;DHT22;133;49.626;9.680;2023-04-24T05:19:53;10.40;94.70
298;DHT22;133;49.626;9.680;2023-04-24T05:22:19;10.50;94.80
298;DHT22;133;49.626;9.680;2023-04-24T05:24:46;10.60;95.00
298;DHT22;133;49.626;9.680;2023-04-24T05:27:12;10.60;93.00
298;DHT22;133;49.626;9.680;2023-04-24T05:29:38;10.70;92.90
298;DHT22;133;49.626;9.680;2023-04-24T05:32:03;10.70;92.30
298;DHT22;133;49.626;9.680;2023-04-24T05:34:29;10.60;91.20
298;DHT22;133;49.626;9.680;2023-04-24T05:36:55;10.50;90.60
298;DHT22;133;49.626;9.680;2023-04-24T05:39:20;10.60;90.20
298;DHT22;133;49.626;9.680;2023-04-24T05:41:46;10.60;90.50
298;DHT22;133;49.626;9.680;2023-04-24T05:44:11;10.60;90.50
298;DHT22;133;49.626;9.680;2023-04-24T05:46:37;10.50;90.60
298;DHT22;133;49.626;9.680;2023-04-24T05:49:03;10.40;89.70
298;DHT22;133;49.626;9.680;2023-04-24T05:51:28;10.40;90.00
298;DHT22;133;49.626;9.680;2023-04-24T05:53:54;10.40;90.00
298;DHT22;133;49.626;9.680;2023-04-24T05:56:20;10.30;89.90
298;DHT22;133;49.626;9.680;2023-04-24T05:58:46;10.30;90.00
298;DHT22;133;49.626;9.680;2023-04-24T06:01:13;10.30;89.70
298;DHT22;133;49.626;9.680;2023-04-24T06:03:40;10.20;90.10
298;DHT22;133;49.626;9.680;2023-04-24T06:06:07;10.20;90.40
298;DHT22;133;49.626;9.680;2023-04-24T06:08:33;10.20;90.30
298;DHT22;133;49.626;9.680;2023-04-24T06:10:59;10.20;90.10
298;DHT22;133;49.626;9.680;2023-04-24T06:13:24;10.20;90.40
298;DHT22;133;49.626;9.680;2023-04-24T06:15:50;10.20;89.90
298;DHT22;133;49.626;9.680;2023-04-24T06:18:16;10.20;89.70
298;DHT22;133;49.626;9.680;2023-04-24T06:20:42;10.20;89.00
298;DHT22;133;49.626;9.680;2023-04-24T06:23:08;10.20;89.50
298;DHT22;133;49.626;9.680;2023-04-24T06:25:33;10.20;89.60
298;DHT22;133;49.626;9.680;2023-04-24T06:27:59;10.30;89.10
298;DHT22;133;49.626;9.680;2023-04-24T06:30:26;10.30;87.90
298;DHT22;133;49.626;9.680;2023-04-24T06:32:53;10.30;87.60
298;DHT22;133;49.626;9.680;2023-04-24T06:35:19;10.30;87.90
298;DHT22;133;49.626;9.680;2023-04-24T06:37:46;10.20;87.50
298;DHT22;133;49.626;9.680;2023-04-24T06:40:11;10.30;88.30
298;DHT22;133;49.626;9.680;2023-04-24T06:42:37;10.30;87.90
298;DHT22;133;49.626;9.680;2023-04-24T06:45:03;10.30;86.80
298;DHT22;133;49.626;9.680;2023-04-24T06:47:29;10.40;87.30
298;DHT22;133;49.626;9.680;2023-04-24T06:49:55;10.40;87.50
298;DHT22;133;49.626;9.680;2023-04-24T06:52:21;10.50;87.70
298;DHT22;133;49.626;9.680;2023-04-24T06:54:46;10.60;88.10
298;DHT22;133;49.626;9.680;2023-04-24T06:57:12;10.80;88.20
298;DHT22;133;49.626;9.680;2023-04-24T06:59:38;10.90;87.10
298;DHT22;133;49.626;9.680;2023-04-24T07:02:03;11.10;86.00
298;DHT22;133;49.626;9.680;2023-04-24T07:04:29;11.20;86.00
298;DHT22;133;49.626;9.680;2023-04-24T07:06:56;11.20;86.20
298;DHT22;133;49.626;9.680;2023-04-24T07:09:24;11.10;86.60
298;DHT22;133;49.626;9.680;2023-04-24T07:11:51;11.20;86.70
298;DHT22;133;49.626;9.680;2023-04-24T07:14:17;11.20;85.90
298;DHT22;133;49.626;9.680;2023-04-24T07:16:43;11.30;86.10
298;DHT22;133;49.626;9.680;2023-04-24T07:19:09;11.50;86.20
298;DHT22;133;49.626;9.680;2023-04-24T07:21:35;11.50;86.30
298;DHT22;133;49.626;9.680;2023-04-24T07:24:00;11.50;85.30
298;DHT22;133;49.626;9.680;2023-04-24T07:26:27;11.60;85.20
298;DHT22;133;49.626;9.680;2023-04-24T07:28:53;11.60;84.30
298;DHT22;133;49.626;9.680;2023-04-24T07:31:19;11.60;84.00
298;DHT22;133;49.626;9.680;2023-04-24T07:33:45;11.70;84.30
298;DHT22;133;49.626;9.680;2023-04-24T07:36:11;11.70;81.80
298;DHT22;133;49.626;9.680;2023-04-24T07:38:45;11.60;81.70
298;DHT22;133;49.626;9.680;2023-04-24T07:41:10;11.50;81.80
298;DHT22;133;49.626;9.680;2023-04-24T07:43:36;11.40;81.30
298;DHT22;133;49.626;9.680;2023-04-24T07:46:02;11.40;81.80
298;DHT22;133;49.626;9.680;2023-04-24T07:48:27;11.40;82.10
298;DHT22;133;49.626;9.680;2023-04-24T07:50:53;11.30;82.50
298;DHT22;133;49.626;9.680;2023-04-24T07:53:19;11.30;83.10
298;DHT22;133;49.626;9.680;2023-04-24T07:55:44;11.10;84.30
298;DHT22;133;49.626;9.680;2023-04-24T07:58:10;11.10;84.70
298;DHT22;133;49.626;9.680;2023-04-24T08:00:35;11.10;85.20
298;DHT22;133;49.626;9.680;2023-04-24T08:03:01;11.10;85.30
298;DHT22;133;49.626;9.680;2023-04-24T08:05:27;11.20;85.30
298;DHT22;133;49.626;9.680;2023-04-24T08:07:54;11.20;85.20
298;DHT22;133;49.626;9.680;2023-04-24T08:10:24;11.20;85.40
298;DHT22;133;49.626;9.680;2023-04-24T08:12:50;11.20;84.90
298;DHT22;133;49.626;9.680;2023-04-24T08:15:16;11.10;85.20
298;DHT22;133;49.626;9.680;2023-04-24T08:17:41;11.00;85.30
298;DHT22;133;49.626;9.680;2023-04-24T08:20:09;11.10;85.80
298;DHT22;133;49.626;9.680;2023-04-24T08:22:39;11.10;86.10
298;DHT22;133;49.626;9.680;2023-04-24T08:25:06;11.00;86.40
298;DHT22;133;49.626;9.680;2023-04-24T08:27:32;11.00;87.20
298;DHT22;133;49.626;9.680;2023-04-24T08:29:57;11.00;87.50
298;DHT22;133;49.626;9.680;2023-04-24T08:32:24;10.80;87.90
298;DHT22;133;49.626;9.680;2023-04-24T08:34:50;10.20;84.10
298;DHT22;133;49.626;9.680;2023-04-24T08:37:18;9.70;85.00
298;DHT22;133;49.626;9.680;2023-04-24T08:39:43;9.50;87.50
298;DHT22;133;49.626;9.680;2023-04-24T08:42:09;9.50;88.00
298;DHT22;133;49.626;9.680;2023-04-24T08:44:36;9.50;87.80
298;DHT22;133;49.626;9.680;2023-04-24T08:47:02;9.60;87.80
298;DHT22;133;49.626;9.680;2023-04-24T08:49:28;9.90;88.90
298;DHT22;133;49.626;9.680;2023-04-24T08:51:54;10.10;87.10
298;DHT22;133;49.626;9.680;2023-04-24T08:54:20;10.40;88.60
298;DHT22;133;49.626;9.680;2023-04-24T08:56:48;10.80;85.10
298;DHT22;133;49.626;9.680;2023-04-24T08:59:14;11.00;83.70
298;DHT22;133;49.626;9.680;2023-04-24T09:01:41;11.10;84.40
298;DHT22;133;49.626;9.680;2023-04-24T09:04:08;11.00;83.90
298;DHT22;133;49.626;9.680;2023-04-24T09:06:38;11.20;83.60
298;DHT22;133;49.626;9.680;2023-04-24T09:09:04;11.40;83.90
298;DHT22;133;49.626;9.680;2023-04-24T09:11:31;11.60;83.40
298;DHT22;133;49.626;9.680;2023-04-24T09:14:00;11.70;82.30
298;DHT22;133;49.626;9.680;2023-04-24T09:16:26;11.80;82.30
298;DHT22;133;49.626;9.680;2023-04-24T09:18:52;11.80;83.30
298;DHT22;133;49.626;9.680;2023-04-24T09:21:21;11.80;82.20
298;DHT22;133;49.626;9.680;2023-04-24T09:23:57;11.90;82.50
298;DHT22;133;49.626;9.680;2023-04-24T09:26:23;12.00;79.50
298;DHT22;133;49.626;9.680;2023-04-24T09:28:49;12.10;79.60
298;DHT22;133;49.626;9.680;2023-04-24T09:31:18;12.30;78.80
298;DHT22;133;49.626;9.680;2023-04-24T09:33:58;12.40;79.10
298;DHT22;133;49.626;9.680;2023-04-24T09:36:42;12.70;78.20
298;DHT22;133;49.626;9.680;2023-04-24T09:39:13;12.80;76.70
298;DHT22;133;49.626;9.680;2023-04-24T09:41:54;12.90;75.60
298;DHT22;133;49.626;9.680;2023-04-24T09:44:24;13.30;73.90
298;DHT22;133;49.626;9.680;2023-04-24T09:46:59;14.10;72.60
298;DHT22;133;49.626;9.680;2023-04-24T09:49:28;14.40;68.30
298;DHT22;133;49.626;9.680;2023-04-24T09:52:04;14.80;68.20
298;DHT22;133;49.626;9.680;2023-04-24T09:54:30;14.40;68.70
298;DHT22;133;49.626;9.680;2023-04-24T09:56:56;14.30;70.00
298;DHT22;133;49.626;9.680;2023-04-24T09:59:22;14.00;70.70
298;DHT22;133;49.626;9.680;2023-04-24T10:01:48;14.00;69.90
298;DHT22;133;49.626;9.680;2023-04-24T10:04:22;13.80;70.80
298;DHT22;133;49.626;9.680;2023-04-24T10:06:50;14.00;70.00
298;DHT22;133;49.626;9.680;2023-04-24T10:09:17;14.20;70.50
298;DHT22;133;49.626;9.680;2023-04-24T10:11:45;13.90;69.70
298;DHT22;133;49.626;9.680;2023-04-24T10:14:16;13.40;70.90
298;DHT22;133;49.626;9.680;2023-04-24T10:16:42;13.30;70.80
298;DHT22;133;49.626;9.680;2023-04-24T10:19:09;13.00;72.30
298;DHT22;133;49.626;9.680;2023-04-24T10:21:36;12.80;73.20
298;DHT22;133;49.626;9.680;2023-04-24T10:24:08;12.70;73.90
298;DHT22;133;49.626;9.680;2023-04-24T10:26:34;12.60;74.10
298;DHT22;133;49.626;9.680;2023-04-24T10:29:01;12.60;74.60
298;DHT22;133;49.626;9.680;2023-04-24T10:31:30;12.50;74.90
298;DHT22;133;49.626;9.680;2023-04-24T10:33:56;12.60;75.20
298;DHT22;133;49.626;9.680;2023-04-24T10:36:24;12.70;74.50
298;DHT22;133;49.626;9.680;2023-04-24T10:38:53;12.30;74.40
298;DHT22;133;49.626;9.680;2023-04-24T10:41:20;12.30;75.50
298;DHT22;133;49.626;9.680;2023-04-24T10:43:50;12.30;74.80
298;DHT22;133;49.626;9.680;2023-04-24T10:46:30;12.20;74.90
298;DHT22;133;49.626;9.680;2023-04-24T10:48:56;12.10;74.60
298;DHT22;133;49.626;9.680;2023-04-24T10:51:23;12.10;74.60
298;DHT22;133;49.626;9.680;2023-04-24T10:53:52;12.30;75.10
298;DHT22;133;49.626;9.680;2023-04-24T10:56:18;12.30;74.80
298;DHT22;133;49.626;9.680;2023-04-24T10:58:50;12.30;74.70
298;DHT22;133;49.626;9.680;2023-04-24T11:03:58;12.30;74.80
298;DHT22;133;49.626;9.680;2023-04-24T11:06:31;12.50;74.60
298;DHT22;133;49.626;9.680;2023-04-24T11:09:08;12.90;74.60
298;DHT22;133;49.626;9.680;2023-04-24T11:11:36;13.00;72.40
298;DHT22;133;49.626;9.680;2023-04-24T11:14:04;13.10;72.20
298;DHT22;133;49.626;9.680;2023-04-24T11:16:37;13.30;71.80
298;DHT22;133;49.626;9.680;2023-04-24T11:19:17;13.30;71.00
298;DHT22;133;49.626;9.680;2023-04-24T11:24:39;14.50;69.30
298;DHT22;133;49.626;9.680;2023-04-24T11:27:21;14.50;67.30
298;DHT22;133;49.626;9.680;2023-04-24T11:34:50;13.80;69.30
298;DHT22;133;49.626;9.680;2023-04-24T11:37:16;13.90;69.40
298;DHT22;133;49.626;9.680;2023-04-24T11:39:42;13.90;69.50
298;DHT22;133;49.626;9.680;2023-04-24T11:42:09;14.30;69.70
298;DHT22;133;49.626;9.680;2023-04-24T11:44:35;14.70;67.20
298;DHT22;133;49.626;9.680;2023-04-24T11:47:08;14.90;66.90
298;DHT22;133;49.626;9.680;2023-04-24T11:49:36;15.70;65.10
298;DHT22;133;49.626;9.680;2023-04-24T11:52:02;16.40;63.80
298;DHT22;133;49.626;9.680;2023-04-24T11:54:28;16.10;62.80
298;DHT22;133;49.626;9.680;2023-04-24T11:56:55;16.80;63.40
298;DHT22;133;49.626;9.680;2023-04-24T11:59:21;17.10;61.20
298;DHT22;133;49.626;9.680;2023-04-24T12:01:47;17.00;61.40
298;DHT22;133;49.626;9.680;2023-04-24T12:04:15;16.90;61.40
298;DHT22;133;49.626;9.680;2023-04-24T12:07:03;16.20;62.40
298;DHT22;133;49.626;9.680;2023-04-24T12:09:29;16.10;64.30
298;DHT22;133;49.626;9.680;2023-04-24T12:12:06;16.20;64.10
298;DHT22;133;49.626;9.680;2023-04-24T12:14:32;16.50;64.00
298;DHT22;133;49.626;9.680;2023-04-24T12:16:57;16.40;63.40
298;DHT22;133;49.626;9.680;2023-04-24T12:19:23;16.40;63.20
298;DHT22;133;49.626;9.680;2023-04-24T12:22:03;16.80;62.70
298;DHT22;133;49.626;9.680;2023-04-24T12:24:30;17.30;62.00
298;DHT22;133;49.626;9.680;2023-04-24T12:26:56;17.20;61.80
298;DHT22;133;49.626;9.680;2023-04-24T12:29:23;16.90;62.10
298;DHT22;133;49.626;9.680;2023-04-24T12:31:51;16.50;63.70
298;DHT22;133;49.626;9.680;2023-04-24T12:34:20;16.40;62.80
298;DHT22;133;49.626;9.680;2023-04-24T12:36:46;16.10;64.10
298;DHT22;133;49.626;9.680;2023-04-24T12:39:19;15.60;65.40
298;DHT22;133;49.626;9.680;2023-04-24T12:41:55;15.60;65.50
298;DHT22;133;49.626;9.680;2023-04-24T12:44:32;15.30;65.80
298;DHT22;133;49.626;9.680;2023-04-24T12:47:03;14.80;66.70
298;DHT22;133;49.626;9.680;2023-04-24T12:49:31;14.50;66.60
298;DHT22;133;49.626;9.680;2023-04-24T12:51:57;14.40;67.40
298;DHT22;133;49.626;9.680;2023-04-24T12:54:23;14.30;67.50
298;DHT22;133;49.626;9.680;2023-04-24T12:56:48;14.70;67.60
298;DHT22;133;49.626;9.680;2023-04-24T12:59:14;15.00;66.80
298;DHT22;133;49.626;9.680;2023-04-24T13:01:40;15.30;65.80
298;DHT22;133;49.626;9.680;2023-04-24T13:04:06;15.20;64.80
298;DHT22;133;49.626;9.680;2023-04-24T13:06:32;14.80;63.90
298;DHT22;133;49.626;9.680;2023-04-24T13:08:58;14.60;66.40
298;DHT22;133;49.626;9.680;2023-04-24T13:11:24;15.00;65.50
298;DHT22;133;49.626;9.680;2023-04-24T13:13:50;15.20;64.80
298;DHT22;133;49.626;9.680;2023-04-24T13:16:16;15.70;63.90
298;DHT22;133;49.626;9.680;2023-04-24T13:18:41;15.80;63.70
298;DHT22;133;49.626;9.680;2023-04-24T13:21:07;15.90;63.40
298;DHT22;133;49.626;9.680;2023-04-24T13:23:32;16.20;64.10
298;DHT22;133;49.626;9.680;2023-04-24T13:25:58;16.70;62.50
298;DHT22;133;49.626;9.680;2023-04-24T13:28:24;17.00;61.00
298;DHT22;133;49.626;9.680;2023-04-24T13:30:50;16.80;60.30
298;DHT22;133;49.626;9.680;2023-04-24T13:33:16;16.60;61.50
298;DHT22;133;49.626;9.680;2023-04-24T13:35:42;17.10;61.40
298;DHT22;133;49.626;9.680;2023-04-24T13:38:07;17.30;59.00
298;DHT22;133;49.626;9.680;2023-04-24T13:40:33;17.60;59.40
298;DHT22;133;49.626;9.680;2023-04-24T13:42:59;18.10;58.50
298;DHT22;133;49.626;9.680;2023-04-24T13:45:26;18.00;58.00
298;DHT22;133;49.626;9.680;2023-04-24T13:47:52;17.60;58.30
298;DHT22;133;49.626;9.680;2023-04-24T13:50:20;16.80;59.00
298;DHT22;133;49.626;9.680;2023-04-24T13:52:45;15.90;61.00
298;DHT22;133;49.626;9.680;2023-04-24T13:55:11;15.50;62.30
298;DHT22;133;49.626;9.680;2023-04-24T13:57:37;15.00;63.20
298;DHT22;133;49.626;9.680;2023-04-24T14:00:03;14.50;64.70
298;DHT22;133;49.626;9.680;2023-04-24T14:02:29;14.30;65.60
298;DHT22;133;49.626;9.680;2023-04-24T14:04:55;14.10;66.30
298;DHT22;133;49.626;9.680;2023-04-24T14:07:21;13.90;67.20
298;DHT22;133;49.626;9.680;2023-04-24T14:09:46;13.50;68.20
298;DHT22;133;49.626;9.680;2023-04-24T14:12:12;13.40;70.90
298;DHT22;133;49.626;9.680;2023-04-24T14:14:39;13.40;70.80
298;DHT22;133;49.626;9.680;2023-04-24T14:17:05;13.40;70.00
298;DHT22;133;49.626;9.680;2023-04-24T14:19:31;13.40;69.50
298;DHT22;133;49.626;9.680;2023-04-24T14:21:56;13.40;69.50
298;DHT22;133;49.626;9.680;2023-04-24T14:24:23;13.50;69.40
298;DHT22;133;49.626;9.680;2023-04-24T14:26:49;13.50;69.10
298;DHT22;133;49.626;9.680;2023-04-24T14:29:15;13.50;68.60
298;DHT22;133;49.626;9.680;2023-04-24T14:31:42;13.90;68.40
298;DHT22;133;49.626;9.680;2023-04-24T14:34:08;14.10;68.10
298;DHT22;133;49.626;9.680;2023-04-24T14:36:33;14.10;68.00
298;DHT22;133;49.626;9.680;2023-04-24T14:38:59;14.00;68.00
298;DHT22;133;49.626;9.680;2023-04-24T14:41:25;14.00;68.70
298;DHT22;133;49.626;9.680;2023-04-24T14:43:50;14.00;68.40
298;DHT22;133;49.626;9.680;2023-04-24T14:46:16;13.70;68.60
298;DHT22;133;49.626;9.680;2023-04-24T14:48:42;13.70;68.80
298;DHT22;133;49.626;9.680;2023-04-24T14:51:07;13.80;69.10
298;DHT22;133;49.626;9.680;2023-04-24T14:53:34;14.10;68.20
298;DHT22;133;49.626;9.680;2023-04-24T14:55:59;14.40;67.50
298;DHT22;133;49.626;9.680;2023-04-24T14:58:25;14.90;67.20
298;DHT22;133;49.626;9.680;2023-04-24T15:00:51;14.80;67.10
298;DHT22;133;49.626;9.680;2023-04-24T15:03:19;14.60;66.30
298;DHT22;133;49.626;9.680;2023-04-24T15:05:45;14.50;67.50
298;DHT22;133;49.626;9.680;2023-04-24T15:08:11;14.30;67.30
298;DHT22;133;49.626;9.680;2023-04-24T15:10:37;14.20;67.50
298;DHT22;133;49.626;9.680;2023-04-24T15:13:02;13.90;67.80
298;DHT22;133;49.626;9.680;2023-04-24T15:15:28;13.70;68.40
298;DHT22;133;49.626;9.680;2023-04-24T15:17:54;13.60;68.10
298;DHT22;133;49.626;9.680;2023-04-24T15:20:19;13.60;68.40
298;DHT22;133;49.626;9.680;2023-04-24T15:22:45;13.70;68.40
298;DHT22;133;49.626;9.680;2023-04-24T15:25:11;13.70;68.80
298;DHT22;133;49.626;9.680;2023-04-24T15:27:44;13.70;68.80
298;DHT22;133;49.626;9.680;2023-04-24T15:30:10;13.50;69.30
298;DHT22;133;49.626;9.680;2023-04-24T15:32:37;13.40;72.10
298;DHT22;133;49.626;9.680;2023-04-24T15:35:03;13.30;71.80
298;DHT22;133;49.626;9.680;2023-04-24T15:37:29;13.30;70.80
298;DHT22;133;49.626;9.680;2023-04-24T15:39:55;13.30;71.70
298;DHT22;133;49.626;9.680;2023-04-24T15:42:20;13.70;70.90
298;DHT22;133;49.626;9.680;2023-04-24T15:44:46;13.80;69.90
298;DHT22;133;49.626;9.680;2023-04-24T15:47:12;14.00;69.40
298;DHT22;133;49.626;9.680;2023-04-24T15:49:39;14.10;69.90
298;DHT22;133;49.626;9.680;2023-04-24T15:52:05;14.10;67.50
298;DHT22;133;49.626;9.680;2023-04-24T15:54:31;14.30;67.00
298;DHT22;133;49.626;9.680;2023-04-24T15:56:56;14.50;66.50
298;DHT22;133;49.626;9.680;2023-04-24T15:59:23;14.80;66.60
298;DHT22;133;49.626;9.680;2023-04-24T16:01:48;15.10;66.10
298;DHT22;133;49.626;9.680;2023-04-24T16:04:14;15.30;64.90
298;DHT22;133;49.626;9.680;2023-04-24T16:06:40;14.90;65.70
298;DHT22;133;49.626;9.680;2023-04-24T16:09:06;15.00;65.80
298;DHT22;133;49.626;9.680;2023-04-24T16:11:33;14.70;66.20
298;DHT22;133;49.626;9.680;2023-04-24T16:14:01;14.40;66.90
298;DHT22;133;49.626;9.680;2023-04-24T16:16:26;14.00;67.80
298;DHT22;133;49.626;9.680;2023-04-24T16:18:52;13.60;69.30
298;DHT22;133;49.626;9.680;2023-04-24T16:21:19;13.50;69.80
298;DHT22;133;49.626;9.680;2023-04-24T16:23:45;13.40;70.50
298;DHT22;133;49.626;9.680;2023-04-24T16:26:11;13.30;70.90
298;DHT22;133;49.626;9.680;2023-04-24T16:28:36;13.20;71.10
298;DHT22;133;49.626;9.680;2023-04-24T16:31:02;12.90;71.50
298;DHT22;133;49.626;9.680;2023-04-24T16:33:28;12.70;72.00
298;DHT22;133;49.626;9.680;2023-04-24T16:35:54;12.80;72.40
298;DHT22;133;49.626;9.680;2023-04-24T16:38:20;12.90;72.20
298;DHT22;133;49.626;9.680;2023-04-24T16:40:45;12.70;72.80